createdAt,value
2022-07-28T00:01:19.065Z,0.2
2022-07-28T00:03:45.146Z,0.3
2022-07-28T00:06:11.265Z,0.1
2022-07-28T00:08:37.346Z,0.2
2022-07-28T00:11:03.454Z,0.2
2022-07-28T00:13:28.564Z,0.1
2022-07-28T00:15:54.645Z,0.4
2022-07-28T00:18:20.734Z,0.2
2022-07-28T00:20:46.857Z,0
2022-07-28T00:23:12.927Z,0.2
2022-07-28T00:25:39.021Z,0.2
2022-07-28T00:28:05.122Z,0.5
2022-07-28T00:30:30.252Z,0.1
2022-07-28T00:32:55.366Z,0.5
2022-07-28T00:35:20.498Z,0.1
2022-07-28T00:37:45.577Z,0.1
2022-07-28T00:40:10.711Z,0.2
2022-07-28T00:42:35.821Z,0
2022-07-28T00:45:01.912Z,0.2
2022-07-28T00:47:28.008Z,0.5
2022-07-28T00:49:54.106Z,0
2022-07-28T00:52:20.194Z,0.3
2022-07-28T00:54:46.292Z,0.3
2022-07-28T00:57:12.382Z,0.2
2022-07-28T00:59:38.489Z,0.2
2022-07-28T01:02:04.573Z,0.2
2022-07-28T01:04:30.684Z,0.1
2022-07-28T01:06:56.767Z,0
2022-07-28T01:09:22.866Z,0.4
2022-07-28T01:11:48.974Z,0.3
2022-07-28T01:14:14.067Z,0.1
2022-07-28T01:16:40.171Z,0
2022-07-28T01:19:06.262Z,0.1
2022-07-28T01:21:32.362Z,0.5
2022-07-28T01:23:58.464Z,0.2
2022-07-28T01:26:24.564Z,0.1
2022-07-28T01:28:50.645Z,0.3
2022-07-28T01:31:15.766Z,0.1
2022-07-28T01:33:40.874Z,0.5
2022-07-28T01:36:06.061Z,0
2022-07-28T01:38:31.111Z,0.3
2022-07-28T01:40:57.213Z,0.2
2022-07-28T01:43:23.328Z,0.2
2022-07-28T01:45:49.413Z,0.1
2022-07-28T01:48:15.524Z,0.2
2022-07-28T01:50:41.589Z,0.2
2022-07-28T01:53:07.686Z,0.2
2022-07-28T01:55:33.784Z,0.2
2022-07-28T01:57:59.891Z,0.3
2022-07-28T02:00:25.976Z,0
2022-07-28T02:02:52.073Z,0.2
2022-07-28T02:05:18.176Z,0.3
2022-07-28T02:07:44.268Z,0.2
2022-07-28T02:10:09.380Z,0.6
2022-07-28T02:12:35.465Z,0
2022-07-28T02:15:01.585Z,0.2
2022-07-28T02:17:27.665Z,0.2
2022-07-28T02:19:53.795Z,0.1
2022-07-28T02:22:19.863Z,0.2
2022-07-28T02:24:45.944Z,0.2
2022-07-28T02:27:11.061Z,0.4
2022-07-28T02:29:36.174Z,0.1
2022-07-28T02:32:02.270Z,0.3
2022-07-28T02:34:27.415Z,0.3
2022-07-28T02:36:52.517Z,0.4
2022-07-28T02:39:18.606Z,0
2022-07-28T02:41:44.704Z,0.3
2022-07-28T02:44:10.788Z,0.1
2022-07-28T02:46:36.901Z,0.4
2022-07-28T02:49:02.986Z,0.2
2022-07-28T02:51:29.099Z,0.1
2022-07-28T02:53:55.170Z,0.4
2022-07-28T02:56:21.268Z,0.1
2022-07-28T02:58:47.374Z,0.7
2022-07-28T03:01:13.469Z,0.3
2022-07-28T03:03:39.568Z,0.3
2022-07-28T03:06:05.651Z,0.3
2022-07-28T03:08:30.837Z,0.3
2022-07-28T03:10:56.869Z,0.2
2022-07-28T03:13:22.966Z,0.1
2022-07-28T03:15:49.047Z,0.1
2022-07-28T03:18:15.164Z,0
2022-07-28T03:20:41.236Z,0
2022-07-28T03:23:07.358Z,0.4
2022-07-28T03:25:32.444Z,0.2
2022-07-28T03:27:57.563Z,0.4
2022-07-28T03:30:22.691Z,0.7
2022-07-28T03:32:47.805Z,0.5
2022-07-28T03:35:13.887Z,0.4
2022-07-28T03:37:39.999Z,0.2
2022-07-28T03:40:06.086Z,0.4
2022-07-28T03:42:32.178Z,0.1
2022-07-28T03:44:58.275Z,0.3
2022-07-28T03:47:24.370Z,0.4
2022-07-28T03:52:16.560Z,0.5
2022-07-28T03:54:42.637Z,0.6
2022-07-28T03:57:08.749Z,0.3
2022-07-28T03:59:34.848Z,0.1
2022-07-28T04:02:00.946Z,0.2
2022-07-28T04:04:26.058Z,0.5
2022-07-28T04:06:52.147Z,0.3
2022-07-28T04:09:18.243Z,0.1
2022-07-28T04:11:44.348Z,0.2
2022-07-28T04:14:10.418Z,0
2022-07-28T04:16:36.504Z,0.2
2022-07-28T04:19:02.607Z,0.1
2022-07-28T04:21:28.693Z,0.2
2022-07-28T04:23:53.823Z,0.3
2022-07-28T04:26:18.947Z,0.1
2022-07-28T04:28:45.022Z,0.1
2022-07-28T04:31:11.122Z,0.3
2022-07-28T04:33:37.205Z,0.1
2022-07-28T04:36:03.319Z,0.4
2022-07-28T04:38:29.409Z,0.2
2022-07-28T04:40:55.492Z,0.4
2022-07-28T04:43:21.591Z,0.4
2022-07-28T04:45:47.704Z,0.2
2022-07-28T04:48:13.771Z,0.3
2022-07-28T04:53:05.998Z,0.4
2022-07-28T04:55:32.067Z,0.1
2022-07-28T04:57:57.178Z,0.8
2022-07-28T05:00:23.270Z,0.3
2022-07-28T05:02:49.384Z,0.2
2022-07-28T05:05:15.458Z,0.9
2022-07-28T05:07:41.567Z,0.2
2022-07-28T05:10:07.652Z,0.1
2022-07-28T05:12:33.780Z,0
2022-07-28T05:14:59.857Z,0.4
2022-07-28T05:17:24.967Z,0.2
2022-07-28T05:19:50.072Z,0.3
2022-07-28T05:22:15.194Z,0.3
2022-07-28T05:24:40.328Z,0.2
2022-07-28T05:27:06.427Z,0.4
2022-07-28T05:29:32.505Z,0.2
2022-07-28T05:31:58.613Z,0.3
2022-07-28T05:34:24.697Z,0.4
2022-07-28T05:36:50.792Z,0.4
2022-07-28T05:39:16.892Z,0.4
2022-07-28T05:41:42.984Z,0.2
2022-07-28T05:44:09.068Z,0.8
2022-07-28T05:46:35.169Z,1
2022-07-28T05:49:01.280Z,0.4
2022-07-28T05:51:27.348Z,0.5
2022-07-28T05:53:53.464Z,0.9
2022-07-28T05:56:18.566Z,0.5
2022-07-28T05:58:44.667Z,0.3
2022-07-28T06:01:10.759Z,0.7
2022-07-28T06:03:36.849Z,0.5
2022-07-28T06:06:02.947Z,0.6
2022-07-28T06:08:29.054Z,0.8
2022-07-28T06:10:55.139Z,0.3
2022-07-28T06:13:20.267Z,0.5
2022-07-28T06:15:45.368Z,0.7
2022-07-28T06:18:10.486Z,0.7
2022-07-28T06:20:35.604Z,1.1
2022-07-28T06:23:01.708Z,0.4
2022-07-28T06:25:27.801Z,0.5
2022-07-28T06:27:53.891Z,0.3
2022-07-28T06:30:20.009Z,1.1
2022-07-28T06:32:46.082Z,1.2
2022-07-28T06:35:12.174Z,0.8
2022-07-28T06:37:38.263Z,1
2022-07-28T06:40:04.362Z,1.2
2022-07-28T06:42:30.467Z,1.2
2022-07-28T06:44:56.573Z,1.1
2022-07-28T06:47:22.687Z,1.3
2022-07-28T06:49:48.744Z,1
2022-07-28T06:52:13.867Z,0.7
2022-07-28T06:54:39.946Z,1.3
2022-07-28T06:57:06.058Z,1.4
2022-07-28T06:59:32.156Z,1.4
2022-07-28T07:01:58.234Z,1.2
2022-07-28T07:04:24.326Z,1.3
2022-07-28T07:06:50.423Z,1.2
2022-07-28T07:09:16.529Z,1.2
2022-07-28T07:11:41.655Z,1.3
2022-07-28T07:14:06.755Z,1.2
2022-07-28T07:16:31.886Z,1.5
2022-07-28T07:18:56.995Z,1.2
2022-07-28T07:21:23.078Z,1.4
2022-07-28T07:23:49.195Z,1.4
2022-07-28T07:26:14.303Z,1.3
2022-07-28T07:28:39.410Z,1.2
2022-07-28T07:31:05.531Z,1.9
2022-07-28T07:33:31.606Z,1.7
2022-07-28T07:35:57.706Z,1.7
2022-07-28T07:38:23.800Z,1.3
2022-07-28T07:40:49.899Z,1.6
2022-07-28T07:43:15.993Z,1.7
2022-07-28T07:45:42.086Z,1.6
2022-07-28T07:48:08.185Z,1.6
2022-07-28T07:50:34.263Z,2
2022-07-28T07:53:00.377Z,1.6
2022-07-28T07:55:26.472Z,1.5
2022-07-28T07:57:52.549Z,1.5
2022-07-28T08:00:17.670Z,1.4
2022-07-28T08:02:43.775Z,1.9
2022-07-28T08:05:09.862Z,1.7
2022-07-28T08:07:35.951Z,1.6
2022-07-28T08:10:02.068Z,1.5
2022-07-28T08:12:28.155Z,1.6
2022-07-28T08:14:54.227Z,1.7
2022-07-28T08:17:19.371Z,1.5
2022-07-28T08:19:44.480Z,2
2022-07-28T08:22:09.609Z,1.6
2022-07-28T08:24:34.710Z,1.5
2022-07-28T08:27:00.802Z,1.4
2022-07-28T08:29:26.899Z,1.5
2022-07-28T08:31:53.006Z,1.7
2022-07-28T08:34:19.091Z,1.8
2022-07-28T08:36:45.185Z,1.8
2022-07-28T08:39:11.281Z,2.1
2022-07-28T08:41:36.389Z,1.7
2022-07-28T08:44:02.500Z,1.8
2022-07-28T08:46:28.572Z,1.5
2022-07-28T08:48:54.674Z,1.8
2022-07-28T08:51:20.782Z,1.9
2022-07-28T08:53:46.870Z,1.7
2022-07-28T08:56:12.980Z,1.7
2022-07-28T08:58:39.083Z,1.7
2022-07-28T09:01:05.154Z,1.6
2022-07-28T09:03:31.242Z,1.7
2022-07-28T09:05:57.359Z,2.1
2022-07-28T09:08:23.459Z,1.8
2022-07-28T09:10:49.529Z,1.7
2022-07-28T09:13:14.731Z,2.2
2022-07-28T09:15:39.767Z,1.8
2022-07-28T09:18:05.859Z,1.6
2022-07-28T09:20:31.961Z,1.5
2022-07-28T09:22:58.060Z,1.8
2022-07-28T09:25:24.170Z,1.9
2022-07-28T09:27:50.253Z,1.8
2022-07-28T09:30:16.339Z,2.1
2022-07-28T09:32:42.449Z,2.1
2022-07-28T09:35:08.539Z,1.5
2022-07-28T09:37:34.613Z,2.1
2022-07-28T09:40:00.715Z,1.7
2022-07-28T09:42:26.826Z,1.7
2022-07-28T09:44:52.907Z,2.1
2022-07-28T09:47:18.018Z,1.8
2022-07-28T09:49:44.111Z,1.9
2022-07-28T09:52:10.209Z,1.5
2022-07-28T09:54:36.312Z,2.2
2022-07-28T09:57:02.402Z,1.7
2022-07-28T09:59:28.496Z,2.1
2022-07-28T10:01:54.595Z,1.9
2022-07-28T10:04:20.773Z,1.7
2022-07-28T10:06:44.828Z,1.9
2022-07-28T10:09:10.931Z,2
2022-07-28T10:11:37.023Z,1.7
2022-07-28T10:14:03.106Z,2.1
2022-07-28T10:16:29.207Z,2
2022-07-28T10:18:55.315Z,1.7
2022-07-28T10:21:21.395Z,1.5
2022-07-28T10:23:47.508Z,1.9
2022-07-28T10:26:13.594Z,1.9
2022-07-28T10:28:39.693Z,2.3
2022-07-28T10:31:05.779Z,2
2022-07-28T10:33:31.870Z,1.8
2022-07-28T10:35:57.962Z,2
2022-07-28T10:38:23.131Z,1.9
2022-07-28T10:40:49.171Z,2.2
2022-07-28T10:43:15.266Z,2.1
2022-07-28T10:45:41.371Z,1.9
2022-07-28T10:48:07.478Z,1.7
2022-07-28T10:50:33.577Z,1.9
2022-07-28T10:52:59.654Z,1.7
2022-07-28T10:55:24.775Z,2.1
2022-07-28T10:57:49.884Z,1.9
2022-07-28T11:00:15.018Z,1.9
2022-07-28T11:02:40.115Z,2.1
2022-07-28T11:05:05.235Z,1.7
2022-07-28T11:07:30.356Z,1.7
2022-07-28T11:09:56.471Z,2.2
2022-07-28T11:12:22.551Z,1.8
2022-07-28T11:14:48.652Z,2
2022-07-28T11:17:14.733Z,2
2022-07-28T11:19:40.824Z,1.8
2022-07-28T11:22:06.961Z,2.2
2022-07-28T11:24:33.031Z,2
2022-07-28T11:26:59.130Z,2
2022-07-28T11:29:25.217Z,1.9
2022-07-28T11:31:51.326Z,1.7
2022-07-28T11:34:17.414Z,2
2022-07-28T11:36:43.536Z,1.6
2022-07-28T11:39:08.637Z,1.6
2022-07-28T11:41:34.725Z,1.8
2022-07-28T11:44:00.806Z,1.7
2022-07-28T11:46:26.904Z,1.8
2022-07-28T11:48:52.990Z,2.1
2022-07-28T11:51:19.100Z,2
2022-07-28T11:53:45.201Z,1.9
2022-07-28T11:56:10.311Z,1.9
2022-07-28T11:58:35.425Z,2.1
2022-07-28T12:01:00.561Z,1.9
2022-07-28T12:03:25.657Z,2
2022-07-28T12:05:51.745Z,1.6
2022-07-28T12:08:17.840Z,1.9
2022-07-28T12:10:43.960Z,1.7
2022-07-28T12:13:10.049Z,2
2022-07-28T12:15:36.137Z,1.7
2022-07-28T12:18:02.268Z,1.7
2022-07-28T12:20:28.328Z,1.9
2022-07-28T12:25:20.515Z,2.2
2022-07-28T12:27:46.620Z,2
2022-07-28T12:30:12.720Z,1.7
2022-07-28T12:32:38.804Z,2
2022-07-28T12:35:03.977Z,1.9
2022-07-28T12:37:30.012Z,2
2022-07-28T12:39:56.105Z,1.7
2022-07-28T12:42:22.217Z,1.9
2022-07-28T12:44:48.295Z,1.9
2022-07-28T12:47:14.398Z,2
2022-07-28T12:49:40.496Z,1.9
2022-07-28T12:52:06.606Z,1.7
2022-07-28T12:54:31.718Z,1.7
2022-07-28T12:56:56.817Z,1.7
2022-07-28T12:59:22.911Z,1.6
2022-07-28T13:01:49.023Z,1.9
2022-07-28T13:04:15.125Z,2.1
2022-07-28T13:06:41.202Z,1.7
2022-07-28T13:09:07.309Z,1.7
2022-07-28T13:11:33.398Z,2.1
2022-07-28T13:13:59.495Z,1.8
2022-07-28T13:16:25.602Z,1.7
2022-07-28T13:18:51.703Z,2.1
2022-07-28T13:21:17.791Z,1.8
2022-07-28T13:23:43.893Z,1.7
2022-07-28T13:26:09.983Z,2.1
2022-07-28T13:28:35.091Z,2
2022-07-28T13:31:01.206Z,1.9
2022-07-28T13:33:27.299Z,1.8
2022-07-28T13:35:53.381Z,2
2022-07-28T13:38:19.480Z,2.1
2022-07-28T13:40:45.573Z,2
2022-07-28T13:43:11.677Z,1.9
2022-07-28T13:45:36.799Z,1.7
2022-07-28T13:48:01.934Z,1.8
2022-07-28T13:50:27.055Z,1.8
2022-07-28T13:52:52.139Z,1.7
2022-07-28T13:55:18.240Z,2
2022-07-28T13:57:43.361Z,1.7
2022-07-28T14:00:08.477Z,1.6
2022-07-28T14:02:34.599Z,2.1
2022-07-28T14:05:00.684Z,1.8
2022-07-28T14:07:26.797Z,1.7
2022-07-28T14:09:52.869Z,1.8
2022-07-28T14:12:18.977Z,1.9
2022-07-28T14:14:45.061Z,1.9
2022-07-28T14:17:11.158Z,1.6
2022-07-28T14:19:37.247Z,1.9
2022-07-28T14:22:03.359Z,1.7
2022-07-28T14:24:29.441Z,1.9
2022-07-28T14:26:55.548Z,1.9
2022-07-28T14:29:21.638Z,1.9
2022-07-28T14:31:46.778Z,1.7
2022-07-28T14:34:12.856Z,2.1
2022-07-28T14:36:38.968Z,1.8
2022-07-28T14:39:05.061Z,1.7
2022-07-28T14:41:31.151Z,1.7
2022-07-28T14:43:57.242Z,2.1
2022-07-28T14:46:23.346Z,1.6
2022-07-28T14:48:48.469Z,1.9
2022-07-28T14:51:13.583Z,1.6
2022-07-28T14:53:39.689Z,1.7
2022-07-28T14:56:05.786Z,1.5
2022-07-28T14:58:31.884Z,1.8
2022-07-28T15:00:57.972Z,1.9
2022-07-28T15:03:24.083Z,1.7
2022-07-28T15:05:50.175Z,1.7
2022-07-28T15:08:16.267Z,1.7
2022-07-28T15:10:42.375Z,1.6
2022-07-28T15:13:08.459Z,1.6
2022-07-28T15:15:34.552Z,1.6
2022-07-28T15:18:00.654Z,1.3
2022-07-28T15:20:26.740Z,1.5
2022-07-28T15:22:51.868Z,1.7
2022-07-28T15:25:17.947Z,1.6
2022-07-28T15:27:44.055Z,1.6
2022-07-28T15:30:10.161Z,1.5
2022-07-28T15:32:36.268Z,1.5
2022-07-28T15:35:02.357Z,1.5
2022-07-28T15:37:28.455Z,1.6
2022-07-28T15:39:53.573Z,1.3
2022-07-28T15:42:18.686Z,1.7
2022-07-28T15:44:43.810Z,1.5
2022-07-28T15:47:08.952Z,1.6
2022-07-28T15:49:34.064Z,1.6
2022-07-28T15:51:59.180Z,1.5
2022-07-28T15:54:25.275Z,1.4
2022-07-28T15:56:51.362Z,1.4
2022-07-28T15:59:17.480Z,1.6
2022-07-28T16:01:43.556Z,1.6
2022-07-28T16:04:09.675Z,1.6
2022-07-28T16:06:35.748Z,1.5
2022-07-28T16:09:01.852Z,1.7
2022-07-28T16:11:27.975Z,1.5
2022-07-28T16:13:54.077Z,1.6
2022-07-28T16:16:20.178Z,1.5
2022-07-28T16:18:46.254Z,1.8
2022-07-28T16:21:12.338Z,1.7
2022-07-28T16:23:37.466Z,1.7
2022-07-28T16:26:03.590Z,1.7
2022-07-28T16:28:29.645Z,1.8
2022-07-28T16:30:55.755Z,1.6
2022-07-28T16:33:21.845Z,1.5
2022-07-28T16:35:47.956Z,1.5
2022-07-28T16:38:14.036Z,1.7
2022-07-28T16:40:39.167Z,1.5
2022-07-28T16:43:04.274Z,1.3
2022-07-28T16:45:29.397Z,1.7
2022-07-28T16:47:54.500Z,1.6
2022-07-28T16:50:19.624Z,1.7
2022-07-28T16:52:45.713Z,1.6
2022-07-28T16:55:11.821Z,1.7
2022-07-28T16:57:37.927Z,1.7
2022-07-28T17:00:04.033Z,1.7
2022-07-28T17:02:30.113Z,1.6
2022-07-28T17:04:56.210Z,1.5
2022-07-28T17:07:22.317Z,1.7
2022-07-28T17:09:48.433Z,1.4
2022-07-28T17:12:14.507Z,1.5
2022-07-28T17:14:40.604Z,1.5
2022-07-28T17:17:06.702Z,1.5
2022-07-28T17:19:32.789Z,1.6
2022-07-28T17:21:57.897Z,1.6
2022-07-28T17:24:24.001Z,1.6
2022-07-28T17:26:50.082Z,1.6
2022-07-28T17:29:16.185Z,1.7
2022-07-28T17:31:42.287Z,1.8
2022-07-28T17:34:08.374Z,1.5
2022-07-28T17:36:33.496Z,1.7
2022-07-28T17:38:58.622Z,1.8
2022-07-28T17:41:24.704Z,1.7
2022-07-28T17:43:50.829Z,1.8
2022-07-28T17:46:16.901Z,1.7
2022-07-28T17:48:42.986Z,1.6
2022-07-28T17:51:09.096Z,1.8
2022-07-28T17:53:35.221Z,1.7
2022-07-28T17:56:01.291Z,1.7
2022-07-28T17:58:27.382Z,1.9
2022-07-28T18:00:53.487Z,2.1
2022-07-28T18:03:19.567Z,1.7
2022-07-28T18:05:45.675Z,2
2022-07-28T18:08:11.780Z,1.4
2022-07-28T18:10:36.868Z,1.6
2022-07-28T18:13:02.969Z,1.7
2022-07-28T18:15:29.077Z,1.5
2022-07-28T18:17:55.165Z,1.5
2022-07-28T18:20:21.276Z,1.7
2022-07-28T18:22:47.372Z,1.3
2022-07-28T18:25:13.465Z,1.5
2022-07-28T18:27:38.581Z,1.1
2022-07-28T18:30:03.689Z,1.3
2022-07-28T18:32:28.810Z,1.4
2022-07-28T18:34:53.913Z,1.4
2022-07-28T18:37:19.036Z,1.1
2022-07-28T18:39:44.152Z,1.8
2022-07-28T18:42:10.263Z,1.4
2022-07-28T18:44:36.352Z,1.3
2022-07-28T18:47:02.447Z,1.1
2022-07-28T18:49:28.559Z,0.8
2022-07-28T18:51:54.645Z,1.3
2022-07-28T18:54:20.726Z,1.1
2022-07-28T18:56:46.822Z,0.9
2022-07-28T18:59:12.921Z,1
2022-07-28T19:01:39.017Z,0.9
2022-07-28T19:04:05.116Z,0.9
2022-07-28T19:06:31.207Z,1.4
2022-07-28T19:08:57.295Z,1.2
2022-07-28T19:11:22.415Z,1.9
2022-07-28T19:13:48.507Z,1.1
2022-07-28T19:16:14.604Z,1
2022-07-28T19:18:40.714Z,1.1
2022-07-28T19:21:06.799Z,1
2022-07-28T19:23:32.888Z,1
2022-07-28T19:25:58.993Z,0.8
2022-07-28T19:28:24.108Z,0.7
2022-07-28T19:30:49.209Z,0.8
2022-07-28T19:33:15.319Z,1.2
2022-07-28T19:35:40.439Z,0.6
2022-07-28T19:38:05.557Z,1.3
2022-07-28T19:40:31.654Z,1
2022-07-28T19:42:57.731Z,0.8
2022-07-28T19:45:23.841Z,0.9
2022-07-28T19:47:49.951Z,0.8
2022-07-28T19:50:16.037Z,0.3
2022-07-28T19:52:42.119Z,0.7
2022-07-28T19:55:08.221Z,1.1
2022-07-28T19:57:34.302Z,1
2022-07-28T20:00:00.415Z,0.9
2022-07-28T20:02:26.515Z,0.6
2022-07-28T20:04:52.595Z,0.8
2022-07-28T20:07:18.690Z,0.4
2022-07-28T20:09:43.816Z,0.5
2022-07-28T20:12:09.917Z,0.8
2022-07-28T20:14:36.004Z,1.3
2022-07-28T20:17:02.090Z,1.2
2022-07-28T20:19:28.198Z,1
2022-07-28T20:21:54.283Z,1.5
2022-07-28T20:24:20.389Z,1.4
2022-07-28T20:26:45.501Z,1
2022-07-28T20:29:10.614Z,0.7
2022-07-28T20:31:35.748Z,0.8
2022-07-28T20:34:00.851Z,0.5
2022-07-28T20:36:26.931Z,1
2022-07-28T20:38:53.042Z,0.5
2022-07-28T20:41:19.129Z,0.4
2022-07-28T20:43:45.252Z,0.4
2022-07-28T20:46:11.329Z,0.4
2022-07-28T20:48:37.407Z,0.8
2022-07-28T20:51:03.508Z,0.4
2022-07-28T20:53:29.613Z,0.5
2022-07-28T20:55:55.699Z,0.7
2022-07-28T20:58:21.793Z,0.8
2022-07-28T21:00:47.899Z,1
2022-07-28T21:03:13.976Z,0.7
2022-07-28T21:05:39.098Z,0.3
2022-07-28T21:08:05.188Z,0.4
2022-07-28T21:10:31.293Z,0.7
2022-07-28T21:12:57.391Z,0.5
2022-07-28T21:15:23.493Z,0.3
2022-07-28T21:17:49.586Z,0.5
2022-07-28T21:22:41.782Z,0.7
2022-07-28T21:25:06.904Z,0.5
2022-07-28T21:27:31.995Z,0.4
2022-07-28T21:32:24.187Z,0.9
2022-07-28T21:34:50.277Z,0.5
2022-07-28T21:37:16.391Z,0.9
2022-07-28T21:39:42.472Z,0.3
2022-07-28T21:42:08.575Z,0.7
2022-07-28T21:44:34.660Z,0.4
2022-07-28T21:47:00.769Z,0.9
2022-07-28T21:49:26.846Z,0.2
2022-07-28T21:51:52.951Z,0.3
2022-07-28T21:54:19.040Z,0.3
2022-07-28T21:56:45.151Z,0.2
2022-07-28T21:59:10.255Z,0.2
2022-07-28T22:01:36.349Z,0.4
2022-07-28T22:04:02.439Z,0.4
2022-07-28T22:06:28.546Z,0.2
2022-07-28T22:08:54.628Z,0.8
2022-07-28T22:11:20.732Z,0.4
2022-07-28T22:13:46.825Z,0.8
2022-07-28T22:16:11.956Z,0.4
2022-07-28T22:18:37.049Z,0.5
2022-07-28T22:21:03.150Z,0.3
2022-07-28T22:23:29.241Z,1.9
2022-07-28T22:25:55.344Z,1.8
2022-07-28T22:28:21.432Z,1.6
2022-07-28T22:30:47.535Z,0.9
2022-07-28T22:33:13.619Z,1.1
2022-07-28T22:38:05.838Z,0.3
2022-07-28T22:40:31.921Z,0.8
2022-07-28T22:42:58.015Z,0.3
2022-07-28T22:45:24.105Z,0.9
2022-07-28T22:47:50.212Z,0.3
2022-07-28T22:50:15.311Z,0.6
2022-07-28T22:52:41.413Z,0.9
2022-07-28T22:55:07.515Z,0.2
2022-07-28T22:57:33.612Z,0.2
2022-07-28T22:59:59.692Z,0.2
2022-07-28T23:02:25.797Z,0.9
2022-07-28T23:04:51.883Z,0.3
2022-07-28T23:07:17.963Z,0.8
2022-07-28T23:09:43.093Z,0.2
2022-07-28T23:12:08.201Z,0.3
2022-07-28T23:14:33.322Z,0.9
2022-07-28T23:16:58.449Z,1
2022-07-28T23:19:23.572Z,0.5
2022-07-28T23:21:48.683Z,0.5
2022-07-28T23:24:13.798Z,0.9
2022-07-28T23:26:38.917Z,0.5
2022-07-28T23:29:04.031Z,0.6
2022-07-28T23:31:29.137Z,0.4
2022-07-28T23:33:55.243Z,0.4
2022-07-28T23:36:21.335Z,0.3
2022-07-28T23:38:47.435Z,0.7
2022-07-28T23:41:13.513Z,0.4
2022-07-28T23:43:39.622Z,0.2
2022-07-28T23:46:05.716Z,0.4
2022-07-28T23:48:31.794Z,0.5
2022-07-28T23:50:57.913Z,0.6
2022-07-28T23:53:23.992Z,0.5
2022-07-28T23:55:50.088Z,0.7
2022-07-28T23:58:16.180Z,0.2
